Kaplan, Louisiana
Current Conditions -  °F | °C
As of 9:35 PM on Saturday 24 Jan 2015 (Local Time) from KIYA Reporting Station
Clear Clear  
Wind Chill: 42°   Ceiling: Unl
Heat Index: 45°   Visibility: 10mi
Dew Point: 42°   Wind: 5mph
Humidity: 89%   Direction: 210°SSW
Pressure: 30.1"   Gusts: NA
Location:  30°N, 92.28°W
Report Text: KIYA 250335Z AUTO 21004KT 10SM CLR 07/05 A3010 RMK AO2 T00700053 TSNO
Loading
Personal Weather Stations






























Interactive Weather Map New forecast layout! Learn more

10-Day Weather Forecast

Advertisements
Track Severe Weather on mobile